Fairbanks, AK (99701)

12:21 AM AKST on December 11, 2016 (GMT -0900)
KAKFAIRB24 | | Change Station

Elev 540 ft 64.81 °N, 147.70 °W | Updated 1 minute ago

Clear
Clear
-12.6 °F
Feels Like -13 °F
N
0.0
Wind Variable Wind from NNE
Gusts 0.0 mph

Today
High -- | Low -- °F
--% Chance of Precip.
Yesterday
High -- | Low -- °F
Precip. -- in
Pressure 30.60 in
Visibility 10.0 miles
Clouds Clear
Windchill -13 °F
Dew Point -16 °F
Humidity 83%
Rainfall 0.00 in
Snow Depth Not available.
10:46 AM 2:42 PM
Waxing Gibbous, 90% visible
METAR PAFB 110858Z AUTO 00000KT 10SM CLR M28/M31 A3053 RMK AO2 SLP362 T12821312 412551329 52015
Pressure 30.60 in
Visibility 10.0 miles
Clouds Clear
Windchill -13 °F
Dew Point -16 °F
Humidity 83%
Rainfall 0.00 in
Snow Depth Not available.
10:46 AM 2:42 PM
Waxing Gibbous, 90% visible
METAR PAFB 110858Z AUTO 00000KT 10SM CLR M28/M31 A3053 RMK AO2 SLP362 T12821312 412551329 52015

10-Day Weather Forecast

Almanac

Astronomy

Dec. 11, 2016 Rise Set
Actual Time
Civil Twilight
Nautical Twilight
Astronomical Twilight
Moon
Length of Visible Light
Length of Day
Tomorrow will be .
, % of the Moon is Illuminated

Today's Extremes

State Highs State Lows

Community

WunderPhotos

Upload Photos

1,956,705 photos uploaded!

WunderBlog® & News

Nearby

Air Quality

  Air Quality AQ Index Pollutant
Not available.

Snow Depth

Station Depth Elevation

Earthquake Activity

City Distance Mag. Time & Date
Minimum magnitude displayed is 2.5.

Coastal Water Temperatures

Place Temperature

Stations

Nearby Weather Stations

Station Location Temp. Windchill Dew Point Humidity Wind Precip. Elev Updated Type
                   

Watches & Warnings

There are currently no watches in effect.